createdAt,value
2019-03-22T00:01:04.551Z,55.00
2019-03-22T00:03:35.938Z,53.80
2019-03-22T00:06:08.297Z,49.40
2019-03-22T00:08:41.458Z,50.40
2019-03-22T00:11:12.643Z,52.00
2019-03-22T00:13:43.898Z,52.50
2019-03-22T00:16:15.382Z,50.60
2019-03-22T00:18:47.736Z,43.60
2019-03-22T00:21:19.049Z,51.60
2019-03-22T00:23:50.445Z,54.40
2019-03-22T00:26:22.635Z,49.25
2019-03-22T00:28:53.832Z,50.00
2019-03-22T00:31:25.150Z,50.60
2019-03-22T00:33:56.469Z,54.25
2019-03-22T00:36:27.707Z,47.60
2019-03-22T00:38:58.948Z,53.75
2019-03-22T00:41:30.541Z,51.60
2019-03-22T00:44:01.881Z,51.75
2019-03-22T00:46:33.128Z,53.00
2019-03-22T00:49:04.459Z,53.80
2019-03-22T00:51:35.685Z,50.80
2019-03-22T00:54:06.933Z,50.00
2019-03-22T00:56:38.913Z,51.50
2019-03-22T00:59:10.252Z,51.00
2019-03-22T01:01:42.679Z,56.00
2019-03-22T01:04:14.077Z,50.60
2019-03-22T01:06:45.350Z,45.00
2019-03-22T01:09:16.669Z,52.00
2019-03-22T01:11:48.258Z,55.40
2019-03-22T01:14:19.538Z,44.00
2019-03-22T01:16:50.640Z,48.40
2019-03-22T01:19:21.919Z,48.00
2019-03-22T01:21:53.142Z,52.50
2019-03-22T01:24:24.395Z,45.50
2019-03-22T01:26:55.596Z,50.75
2019-03-22T01:29:27.806Z,50.00
2019-03-22T01:31:59.022Z,49.40
2019-03-22T01:34:32.979Z,54.00
2019-03-22T01:37:04.087Z,51.40
2019-03-22T01:39:35.373Z,53.60
2019-03-22T01:42:07.285Z,52.40
2019-03-22T01:44:38.589Z,54.00
2019-03-22T01:47:09.682Z,50.60
2019-03-22T01:49:41.166Z,50.40
2019-03-22T01:52:12.449Z,52.00
2019-03-22T01:54:43.654Z,52.00
2019-03-22T01:57:14.855Z,47.80
2019-03-22T01:59:53.454Z,49.40
2019-03-22T02:02:24.600Z,49.00
2019-03-22T02:04:55.930Z,48.60
2019-03-22T02:07:27.216Z,42.25
2019-03-22T02:09:58.500Z,47.20
2019-03-22T02:12:29.800Z,49.50
2019-03-22T02:15:01.071Z,52.25
2019-03-22T02:17:32.533Z,40.60
2019-03-22T02:20:03.977Z,35.20
2019-03-22T02:22:35.379Z,42.80
2019-03-22T02:25:06.998Z,45.40
2019-03-22T02:27:39.201Z,45.40
2019-03-22T02:30:10.887Z,44.40
2019-03-22T02:32:42.475Z,42.00
2019-03-22T02:35:27.510Z,41.00
2019-03-22T02:37:46.802Z,48.75
2019-03-22T02:40:18.070Z,44.20
2019-03-22T02:42:49.376Z,46.60
2019-03-22T02:45:21.663Z,47.00
2019-03-22T02:47:53.003Z,45.00
2019-03-22T02:50:24.293Z,42.80
2019-03-22T02:52:55.646Z,36.60
2019-03-22T02:55:26.982Z,48.20
2019-03-22T02:57:58.248Z,43.00
2019-03-22T03:00:29.592Z,47.40
2019-03-22T03:03:00.869Z,43.00
2019-03-22T03:05:32.154Z,49.40
2019-03-22T03:08:03.380Z,46.00
2019-03-22T03:10:34.640Z,45.00
2019-03-22T03:13:07.793Z,40.80
2019-03-22T03:15:39.202Z,44.25
2019-03-22T03:18:10.471Z,39.25
2019-03-22T03:20:41.871Z,40.80
2019-03-22T03:23:13.183Z,41.80
2019-03-22T03:25:44.420Z,41.80
2019-03-22T03:28:15.760Z,41.75
2019-03-22T03:30:47.170Z,42.20
2019-03-22T03:33:18.374Z,38.20
2019-03-22T03:35:49.540Z,42.25
2019-03-22T03:38:20.740Z,36.60
2019-03-22T03:40:52.145Z,40.20
2019-03-22T03:43:23.440Z,44.60
2019-03-22T03:45:54.606Z,40.25
2019-03-22T03:48:25.849Z,39.00
2019-03-22T03:50:58.061Z,35.50
2019-03-22T03:53:29.380Z,31.60
2019-03-22T03:56:00.641Z,33.00
2019-03-22T03:58:31.920Z,37.00
2019-03-22T04:01:03.183Z,29.00
2019-03-22T04:03:34.967Z,37.60
2019-03-22T04:06:06.507Z,39.50
2019-03-22T04:08:37.821Z,33.60
2019-03-22T04:11:09.574Z,41.60
2019-03-22T04:13:41.947Z,31.00
2019-03-22T04:16:13.147Z,35.00
2019-03-22T04:18:44.556Z,27.00
2019-03-22T04:21:16.920Z,32.20
2019-03-22T04:23:48.161Z,31.80
2019-03-22T04:26:19.345Z,31.00
2019-03-22T04:28:50.591Z,36.50
2019-03-22T04:31:24.759Z,40.50
2019-03-22T04:33:55.982Z,35.20
2019-03-22T04:36:27.253Z,32.00
2019-03-22T04:38:58.543Z,26.00
2019-03-22T04:41:29.864Z,28.60
2019-03-22T04:44:01.167Z,36.40
2019-03-22T04:46:33.773Z,31.00
2019-03-22T04:49:05.114Z,31.50
2019-03-22T04:51:36.276Z,30.40
2019-03-22T04:54:07.678Z,28.40
2019-03-22T04:56:39.671Z,24.00
2019-03-22T04:59:19.018Z,25.00
2019-03-22T05:01:45.563Z,34.80
2019-03-22T05:04:16.780Z,30.60
2019-03-22T05:06:48.051Z,26.75
2019-03-22T05:09:20.242Z,24.00
2019-03-22T05:11:51.569Z,25.20
2019-03-22T05:14:24.507Z,28.40
2019-03-22T05:16:55.995Z,30.50
2019-03-22T05:19:27.333Z,29.00
2019-03-22T05:21:58.574Z,19.20
2019-03-22T05:24:29.884Z,26.20
2019-03-22T05:27:01.088Z,27.40
2019-03-22T05:29:33.223Z,24.00
2019-03-22T05:32:08.673Z,26.80
2019-03-22T05:34:39.795Z,31.20
2019-03-22T05:37:14.174Z,21.50
2019-03-22T05:39:45.453Z,27.50
2019-03-22T05:42:16.523Z,26.60
2019-03-22T05:44:47.949Z,26.60
2019-03-22T05:47:19.274Z,23.00
2019-03-22T05:49:50.668Z,23.40
2019-03-22T05:52:21.947Z,19.20
2019-03-22T05:54:53.094Z,22.00
2019-03-22T05:57:24.301Z,26.60
2019-03-22T05:59:55.560Z,18.40
2019-03-22T06:02:27.177Z,29.00
2019-03-22T06:04:58.457Z,20.00
2019-03-22T06:07:29.723Z,23.50
2019-03-22T06:10:00.895Z,25.50
2019-03-22T06:12:32.143Z,26.50
2019-03-22T06:15:06.092Z,22.60
2019-03-22T06:17:37.269Z,22.20
2019-03-22T06:20:08.802Z,21.50
2019-03-22T06:22:39.970Z,23.00
2019-03-22T06:25:11.262Z,20.20
2019-03-22T06:27:42.751Z,24.60
2019-03-22T06:30:14.030Z,19.40
2019-03-22T06:32:45.267Z,26.60
2019-03-22T06:35:16.771Z,26.00
2019-03-22T06:37:48.132Z,19.20
2019-03-22T06:40:19.527Z,17.00
2019-03-22T06:42:52.274Z,18.60
2019-03-22T06:45:23.631Z,22.60
2019-03-22T06:47:55.797Z,26.50
2019-03-22T06:50:27.074Z,23.60
2019-03-22T06:53:01.373Z,28.60
2019-03-22T06:55:32.618Z,17.50
2019-03-22T06:58:04.722Z,17.80
2019-03-22T07:00:36.054Z,18.00
2019-03-22T07:03:07.350Z,26.50
2019-03-22T07:05:38.740Z,20.00
2019-03-22T07:08:10.076Z,25.80
2019-03-22T07:10:41.434Z,19.75
2019-03-22T07:13:13.594Z,25.50
2019-03-22T07:15:44.717Z,23.20
2019-03-22T07:18:16.039Z,20.00
2019-03-22T07:20:50.334Z,22.60
2019-03-22T07:23:21.599Z,23.40
2019-03-22T07:25:52.901Z,21.60
2019-03-22T07:28:24.341Z,22.60
2019-03-22T07:30:55.759Z,25.40
2019-03-22T07:33:27.080Z,23.60
2019-03-22T07:35:58.415Z,20.00
2019-03-22T07:38:29.689Z,27.00
2019-03-22T07:41:01.949Z,17.40
2019-03-22T07:43:34.347Z,17.40
2019-03-22T07:46:05.627Z,17.20
2019-03-22T07:48:36.803Z,21.00
2019-03-22T07:51:08.231Z,17.60
2019-03-22T07:53:40.956Z,16.75
2019-03-22T07:56:12.163Z,22.20
2019-03-22T07:58:43.449Z,23.60
2019-03-22T08:01:17.295Z,18.00
2019-03-22T08:03:48.578Z,20.60
2019-03-22T08:06:19.923Z,16.00
2019-03-22T08:08:51.081Z,18.60
2019-03-22T08:11:24.664Z,17.60
2019-03-22T08:13:55.352Z,16.40
2019-03-22T08:16:27.644Z,18.00
2019-03-22T08:18:58.857Z,16.00
2019-03-22T08:21:30.039Z,15.00
2019-03-22T08:24:01.485Z,20.50
2019-03-22T08:26:34.775Z,21.00
2019-03-22T08:29:06.085Z,13.80
2019-03-22T08:31:37.422Z,18.80
2019-03-22T08:34:08.708Z,12.40
2019-03-22T08:36:43.558Z,15.00
2019-03-22T08:39:14.954Z,20.80
2019-03-22T08:41:46.373Z,22.40
2019-03-22T08:44:17.664Z,18.00
2019-03-22T08:46:49.044Z,17.80
2019-03-22T08:49:20.772Z,26.00
2019-03-22T08:51:52.266Z,20.00
2019-03-22T08:54:30.701Z,19.40
2019-03-22T08:57:02.003Z,24.00
2019-03-22T08:59:36.047Z,20.80
2019-03-22T09:02:08.945Z,24.80
2019-03-22T09:04:40.300Z,24.00
2019-03-22T09:07:11.490Z,26.00
2019-03-22T09:09:42.735Z,20.50
2019-03-22T09:12:15.091Z,20.00
2019-03-22T09:14:46.701Z,20.80
2019-03-22T09:17:18.042Z,21.00
2019-03-22T09:19:53.238Z,21.75
2019-03-22T09:22:24.431Z,23.75
2019-03-22T09:24:55.960Z,25.80
2019-03-22T09:27:28.089Z,18.20
2019-03-22T09:30:00.005Z,22.00
2019-03-22T09:32:35.109Z,24.60
2019-03-22T09:35:07.358Z,20.40
2019-03-22T09:37:41.953Z,23.60
2019-03-22T09:40:14.193Z,23.60
2019-03-22T09:42:49.158Z,21.75
2019-03-22T09:45:20.633Z,21.00
2019-03-22T09:47:54.157Z,26.20
2019-03-22T09:50:25.475Z,24.25
2019-03-22T09:52:56.667Z,18.60
2019-03-22T09:55:28.035Z,21.00
2019-03-22T09:57:59.253Z,18.00
2019-03-22T10:00:33.197Z,27.00
2019-03-22T10:03:04.558Z,21.60
2019-03-22T10:05:35.950Z,19.00
2019-03-22T10:08:09.096Z,23.60
2019-03-22T10:10:40.688Z,20.80
2019-03-22T10:13:12.087Z,25.60
2019-03-22T10:15:43.248Z,23.00
2019-03-22T10:18:15.806Z,21.60
2019-03-22T10:20:47.151Z,28.40
2019-03-22T10:23:22.384Z,26.40
2019-03-22T10:25:53.086Z,27.20
2019-03-22T10:28:28.055Z,20.00
2019-03-22T10:31:00.401Z,21.00
2019-03-22T10:33:33.704Z,24.00
2019-03-22T10:36:05.194Z,25.50
2019-03-22T10:38:36.766Z,29.25
2019-03-22T10:41:07.955Z,23.00
2019-03-22T10:43:39.358Z,23.60
2019-03-22T10:46:12.699Z,24.00
2019-03-22T10:48:43.920Z,25.00
2019-03-22T10:51:15.205Z,23.00
2019-03-22T10:53:47.182Z,28.50
2019-03-22T10:56:19.072Z,25.25
2019-03-22T10:58:50.987Z,28.00
2019-03-22T11:01:23.047Z,25.60
2019-03-22T11:03:55.513Z,21.60
2019-03-22T11:06:27.067Z,28.40
2019-03-22T11:08:59.304Z,26.80
2019-03-22T11:11:30.509Z,28.25
2019-03-22T11:14:02.404Z,30.40
2019-03-22T11:16:33.630Z,33.00
2019-03-22T11:19:06.042Z,26.00
2019-03-22T11:21:38.214Z,28.00
2019-03-22T11:24:12.633Z,29.20
2019-03-22T11:26:44.413Z,28.40
2019-03-22T11:29:16.098Z,35.60
2019-03-22T11:31:48.241Z,25.80
2019-03-22T11:34:22.012Z,33.20
2019-03-22T11:36:53.798Z,33.00
2019-03-22T11:39:29.428Z,32.25
2019-03-22T11:42:02.051Z,23.75
2019-03-22T11:44:33.512Z,28.00
2019-03-22T11:47:06.384Z,40.80
2019-03-22T11:49:39.138Z,36.20
2019-03-22T11:52:10.771Z,36.00
2019-03-22T11:54:42.181Z,38.40
2019-03-22T11:57:13.805Z,27.50
2019-03-22T11:59:46.221Z,202.75
2019-03-22T12:02:22.578Z,56.00
2019-03-22T12:05:02.066Z,44.50
2019-03-22T12:07:44.156Z,39.75
2019-03-22T12:10:19.424Z,35.60
2019-03-22T12:12:52.148Z,32.60
2019-03-22T12:15:24.464Z,38.25
2019-03-22T12:17:59.354Z,47.40
2019-03-22T12:20:30.994Z,57.50
2019-03-22T12:23:03.300Z,47.00
2019-03-22T12:25:35.921Z,33.00
2019-03-22T12:28:10.753Z,52.40
2019-03-22T12:30:44.208Z,46.60
2019-03-22T12:33:16.174Z,51.80
2019-03-22T12:35:47.687Z,48.75
2019-03-22T12:38:29.040Z,54.60
2019-03-22T12:41:01.458Z,47.20
2019-03-22T12:43:34.280Z,38.80
2019-03-22T12:46:05.750Z,36.25
2019-03-22T12:48:37.930Z,34.20
2019-03-22T12:51:10.486Z,44.00
2019-03-22T12:53:43.165Z,39.60
2019-03-22T12:56:14.463Z,38.00
2019-03-22T12:58:47.571Z,40.00
2019-03-22T13:01:33.031Z,41.60
2019-03-22T13:04:04.487Z,34.40
2019-03-22T13:06:37.323Z,30.00
2019-03-22T13:09:10.872Z,31.50
2019-03-22T13:11:42.515Z,35.40
2019-03-22T13:14:13.764Z,30.50
2019-03-22T13:16:47.432Z,33.40
2019-03-22T13:19:20.834Z,35.20
2019-03-22T13:21:54.806Z,41.00
2019-03-22T13:24:28.702Z,32.50
2019-03-22T13:27:05.760Z,29.80
2019-03-22T13:29:37.833Z,42.50
2019-03-22T13:32:13.592Z,45.00
2019-03-22T13:34:46.164Z,54.00
2019-03-22T13:37:19.001Z,41.60
2019-03-22T13:39:50.388Z,40.20
2019-03-22T13:42:27.059Z,42.60
2019-03-22T13:44:59.038Z,63.75
2019-03-22T13:47:36.209Z,81.75
2019-03-22T13:50:09.204Z,55.40
2019-03-22T13:52:42.027Z,41.40
2019-03-22T13:55:13.351Z,64.00
2019-03-22T13:57:44.706Z,35.80
2019-03-22T14:00:16.805Z,111.50
2019-03-22T14:02:51.241Z,67.20
2019-03-22T14:05:22.615Z,46.00
2019-03-22T14:07:55.483Z,47.50
2019-03-22T14:10:34.257Z,42.00
2019-03-22T14:13:06.688Z,44.80
2019-03-22T14:15:39.307Z,48.40
2019-03-22T14:18:10.498Z,49.25
2019-03-22T14:20:42.019Z,37.40
2019-03-22T14:23:17.095Z,39.40
2019-03-22T14:25:50.871Z,45.60
2019-03-22T14:28:22.897Z,45.00
2019-03-22T14:30:56.717Z,40.20
2019-03-22T14:33:28.319Z,42.20
2019-03-22T14:36:01.411Z,39.00
2019-03-22T14:38:32.689Z,45.40
2019-03-22T14:41:05.095Z,47.25
2019-03-22T14:43:39.533Z,45.80
2019-03-22T14:46:10.867Z,33.60
2019-03-22T14:48:46.259Z,46.75
2019-03-22T14:51:19.445Z,50.25
2019-03-22T14:53:50.972Z,53.20
2019-03-22T14:56:32.663Z,49.75
2019-03-22T14:59:04.634Z,42.25
2019-03-22T15:16:58.607Z,36.25
2019-03-22T15:41:54.997Z,54.00
2019-03-22T15:44:26.414Z,65.60
2019-03-22T15:46:57.674Z,53.20
2019-03-22T15:49:30.229Z,50.20
2019-03-22T15:52:01.838Z,55.00
2019-03-22T15:54:33.691Z,47.00
2019-03-22T15:57:04.873Z,55.40
2019-03-22T15:59:36.198Z,60.25
2019-03-22T16:02:10.466Z,48.50
2019-03-22T16:04:41.716Z,31.20
2019-03-22T16:07:32.949Z,41.60
2019-03-22T16:21:29.934Z,45.60
2019-03-22T16:24:02.464Z,40.40
2019-03-22T16:26:33.724Z,35.75
2019-03-22T16:29:04.901Z,47.00
2019-03-22T16:31:36.160Z,47.60
2019-03-22T16:34:07.569Z,43.40
2019-03-22T16:36:38.853Z,39.50
2019-03-22T16:39:10.456Z,46.40
2019-03-22T16:41:42.783Z,44.60
2019-03-22T16:44:14.122Z,40.00
2019-03-22T16:46:45.315Z,42.60
2019-03-22T16:49:16.893Z,46.80
2019-03-22T16:51:48.189Z,42.60
2019-03-22T16:54:19.513Z,60.80
2019-03-22T16:56:50.582Z,49.00
2019-03-22T16:59:23.001Z,63.60
2019-03-22T17:06:33.110Z,63.80
2019-03-22T17:09:05.249Z,57.25
2019-03-22T17:11:36.753Z,47.60
2019-03-22T17:14:08.086Z,61.00
2019-03-22T17:16:39.448Z,53.80
2019-03-22T17:19:10.760Z,55.20
2019-03-22T17:21:42.402Z,49.40
2019-03-22T17:24:13.790Z,52.20
2019-03-22T17:26:45.139Z,49.40
2019-03-22T17:29:16.672Z,51.20
2019-03-22T17:31:47.833Z,46.00
2019-03-22T17:34:19.073Z,43.00
2019-03-22T17:36:50.602Z,44.00
2019-03-22T17:39:21.885Z,43.40
2019-03-22T17:41:53.406Z,47.20
2019-03-22T17:44:24.819Z,47.50
2019-03-22T17:46:56.038Z,41.60
2019-03-22T17:49:27.269Z,40.60
2019-03-22T17:51:58.761Z,42.00
2019-03-22T17:54:30.116Z,36.25
2019-03-22T17:57:01.423Z,40.75
2019-03-22T17:59:32.819Z,38.40
2019-03-22T18:02:04.090Z,48.20
2019-03-22T18:04:35.395Z,43.80
2019-03-22T18:07:06.680Z,36.60
2019-03-22T18:32:29.236Z,43.20
2019-03-22T18:45:12.304Z,50.00
2019-03-22T18:47:43.502Z,40.50
2019-03-22T18:50:14.800Z,47.75
2019-03-22T18:52:46.047Z,41.75
2019-03-22T18:55:17.283Z,34.80
2019-03-22T18:57:48.687Z,40.00
2019-03-22T19:00:19.857Z,34.50
2019-03-22T19:02:51.230Z,47.20
2019-03-22T19:05:22.566Z,42.60
2019-03-22T19:07:53.824Z,45.60
2019-03-22T19:10:25.194Z,49.00
2019-03-22T19:12:56.594Z,46.00
2019-03-22T19:15:27.955Z,46.75
2019-03-22T19:17:59.233Z,38.00
2019-03-22T19:20:30.549Z,40.00
2019-03-22T19:23:01.977Z,44.00
2019-03-22T19:25:33.310Z,49.60
2019-03-22T19:28:04.730Z,39.20
2019-03-22T19:30:35.921Z,42.00
2019-03-22T19:33:07.317Z,44.60
2019-03-22T19:35:38.502Z,34.25
2019-03-22T19:38:09.842Z,44.50
2019-03-22T19:40:41.144Z,47.00
2019-03-22T19:43:12.520Z,40.00
2019-03-22T19:45:43.800Z,47.60
2019-03-22T19:48:15.202Z,42.60
2019-03-22T19:50:46.509Z,50.60
2019-03-22T19:53:17.922Z,57.25
2019-03-22T19:55:49.122Z,62.40
2019-03-22T19:58:20.523Z,50.00
2019-03-22T20:00:51.775Z,54.00
2019-03-22T20:03:23.085Z,53.25
2019-03-22T20:05:54.285Z,48.40
2019-03-22T20:08:26.496Z,50.20
2019-03-22T20:10:57.772Z,49.00
2019-03-22T20:13:29.065Z,52.50
2019-03-22T20:16:00.389Z,57.25
2019-03-22T20:18:31.557Z,50.25
2019-03-22T20:21:02.680Z,55.00
2019-03-22T20:23:33.973Z,57.20
2019-03-22T20:26:05.160Z,48.60
2019-03-22T20:28:36.566Z,51.00
2019-03-22T20:31:07.804Z,49.00
2019-03-22T20:33:39.154Z,50.00
2019-03-22T20:36:10.535Z,49.20
2019-03-22T20:38:41.944Z,49.80
2019-03-22T20:41:13.331Z,53.00
2019-03-22T20:43:44.539Z,57.80
2019-03-22T20:46:15.771Z,57.00
2019-03-22T20:48:47.165Z,50.60
2019-03-22T20:51:18.417Z,57.00
2019-03-22T20:53:49.757Z,59.00
2019-03-22T20:56:21.034Z,56.20
2019-03-22T20:58:52.353Z,54.40
2019-03-22T21:01:23.660Z,51.40
2019-03-22T21:03:54.923Z,55.00
2019-03-22T21:06:26.225Z,57.60
2019-03-22T21:08:57.608Z,57.00
2019-03-22T21:11:28.807Z,56.20
2019-03-22T21:14:00.121Z,58.00
2019-03-22T21:16:31.279Z,56.75
2019-03-22T21:19:02.606Z,57.25
2019-03-22T21:21:36.528Z,57.50
2019-03-22T21:24:08.750Z,55.00
2019-03-22T21:26:39.863Z,62.25
2019-03-22T21:29:11.172Z,55.75
2019-03-22T21:31:42.434Z,59.40
2019-03-22T21:34:13.639Z,53.60
2019-03-22T21:36:45.051Z,61.00
2019-03-22T21:39:16.376Z,55.50
2019-03-22T21:41:47.619Z,53.00
2019-03-22T21:44:18.842Z,54.25
2019-03-22T21:46:50.128Z,56.80
2019-03-22T21:49:21.423Z,44.20
2019-03-22T21:51:52.532Z,45.00
2019-03-22T21:54:23.799Z,54.75
2019-03-22T21:56:55.015Z,55.00
2019-03-22T21:59:26.321Z,51.75
2019-03-22T22:01:57.739Z,51.00
2019-03-22T22:04:29.011Z,55.80
2019-03-22T22:07:00.173Z,53.80
2019-03-22T22:09:31.515Z,55.25
2019-03-22T22:12:02.767Z,51.25
2019-03-22T22:14:40.744Z,52.00
2019-03-22T22:17:07.099Z,53.00
2019-03-22T22:19:38.516Z,55.50
2019-03-22T22:22:09.746Z,62.80
2019-03-22T22:24:41.035Z,51.40
2019-03-22T22:27:13.966Z,51.75
2019-03-22T22:29:47.481Z,50.80
2019-03-22T22:32:18.180Z,53.20
2019-03-22T22:34:49.505Z,60.80
2019-03-22T22:37:20.653Z,54.75
2019-03-22T22:39:52.068Z,57.50
2019-03-22T22:42:23.468Z,61.25
2019-03-22T22:44:54.797Z,60.00
2019-03-22T22:47:26.156Z,54.00
2019-03-22T22:49:57.458Z,54.50
2019-03-22T22:52:28.673Z,55.60
2019-03-22T22:55:00.058Z,58.80
2019-03-22T22:57:31.256Z,57.60
2019-03-22T23:00:02.477Z,62.25
2019-03-22T23:02:35.505Z,61.00
2019-03-22T23:05:06.901Z,61.80
2019-03-22T23:07:38.174Z,61.50
2019-03-22T23:10:09.390Z,55.50
2019-03-22T23:12:41.686Z,69.00
2019-03-22T23:15:13.135Z,59.00
2019-03-22T23:17:44.514Z,66.00
2019-03-22T23:20:15.831Z,61.00
2019-03-22T23:22:47.093Z,61.25
2019-03-22T23:25:18.413Z,64.40
2019-03-22T23:27:49.856Z,63.50
2019-03-22T23:30:22.165Z,66.40
2019-03-22T23:32:53.591Z,59.40
2019-03-22T23:35:25.117Z,71.00
2019-03-22T23:37:56.491Z,67.25
2019-03-22T23:40:27.988Z,61.40
2019-03-22T23:42:59.296Z,60.75
2019-03-22T23:45:30.676Z,58.00
2019-03-22T23:48:01.984Z,67.75
2019-03-22T23:50:33.267Z,62.75
2019-03-22T23:53:04.499Z,57.00
2019-03-22T23:55:35.997Z,70.00
2019-03-22T23:58:07.165Z,68.20
